sensor_id;sensor_type;location;lat;lon;timestamp;temperature;humidity
2050;DHT22;8478;49.208;8.806;2023-05-23T13:09:06;18.00;99.90
2050;DHT22;8478;49.208;8.806;2023-05-23T13:11:31;18.10;99.90
2050;DHT22;8478;49.208;8.806;2023-05-23T13:13:57;18.10;99.90
2050;DHT22;8478;49.208;8.806;2023-05-23T13:16:23;18.10;99.90
2050;DHT22;8478;49.208;8.806;2023-05-23T13:18:48;18.10;99.90
2050;DHT22;8478;49.208;8.806;2023-05-23T13:21:14;18.00;99.90
2050;DHT22;8478;49.208;8.806;2023-05-23T13:23:40;18.00;99.90
2050;DHT22;8478;49.208;8.806;2023-05-23T13:26:06;18.00;99.90
2050;DHT22;8478;49.208;8.806;2023-05-23T13:28:32;17.90;99.90
2050;DHT22;8478;49.208;8.806;2023-05-23T13:30:58;18.00;99.90
2050;DHT22;8478;49.208;8.806;2023-05-23T13:33:24;17.90;99.90
2050;DHT22;8478;49.208;8.806;2023-05-23T13:35:50;17.90;99.90
2050;DHT22;8478;49.208;8.806;2023-05-23T13:38:17;18.00;99.90
2050;DHT22;8478;49.208;8.806;2023-05-23T13:40:43;17.90;99.90
2050;DHT22;8478;49.208;8.806;2023-05-23T13:43:09;18.00;99.90
2050;DHT22;8478;49.208;8.806;2023-05-23T13:45:34;17.90;99.90
2050;DHT22;8478;49.208;8.806;2023-05-23T13:48:00;17.90;99.90
2050;DHT22;8478;49.208;8.806;2023-05-23T13:50:26;18.00;99.90
2050;DHT22;8478;49.208;8.806;2023-05-23T13:52:51;17.90;99.90
2050;DHT22;8478;49.208;8.806;2023-05-23T13:55:17;17.90;99.90
2050;DHT22;8478;49.208;8.806;2023-05-23T13:57:43;18.00;99.90
2050;DHT22;8478;49.208;8.806;2023-05-23T14:00:09;18.00;99.90
2050;DHT22;8478;49.208;8.806;2023-05-23T14:02:35;18.00;99.90
2050;DHT22;8478;49.208;8.806;2023-05-23T14:05:01;18.00;99.90
2050;DHT22;8478;49.208;8.806;2023-05-23T14:07:27;17.90;99.90
2050;DHT22;8478;49.208;8.806;2023-05-23T14:09:52;18.00;99.90
2050;DHT22;8478;49.208;8.806;2023-05-23T14:12:18;17.90;99.90
2050;DHT22;8478;49.208;8.806;2023-05-23T14:14:44;18.00;99.90
2050;DHT22;8478;49.208;8.806;2023-05-23T14:17:16;18.00;99.90
2050;DHT22;8478;49.208;8.806;2023-05-23T14:19:42;18.00;99.90
2050;DHT22;8478;49.208;8.806;2023-05-23T14:22:08;18.00;99.90
2050;DHT22;8478;49.208;8.806;2023-05-23T14:24:33;18.00;99.90
2050;DHT22;8478;49.208;8.806;2023-05-23T14:26:59;18.00;99.90
2050;DHT22;8478;49.208;8.806;2023-05-23T14:29:25;18.00;99.90
2050;DHT22;8478;49.208;8.806;2023-05-23T14:31:51;18.00;99.90
2050;DHT22;8478;49.208;8.806;2023-05-23T14:34:16;18.00;99.90
2050;DHT22;8478;49.208;8.806;2023-05-23T14:36:42;18.00;99.90
2050;DHT22;8478;49.208;8.806;2023-05-23T14:39:08;18.00;99.90
2050;DHT22;8478;49.208;8.806;2023-05-23T14:41:33;18.00;99.90
2050;DHT22;8478;49.208;8.806;2023-05-23T14:43:59;18.00;99.90
2050;DHT22;8478;49.208;8.806;2023-05-23T14:46:25;18.00;99.90
2050;DHT22;8478;49.208;8.806;2023-05-23T14:48:51;18.00;99.90
2050;DHT22;8478;49.208;8.806;2023-05-23T14:51:16;18.00;99.90
2050;DHT22;8478;49.208;8.806;2023-05-23T14:53:42;18.00;99.90
2050;DHT22;8478;49.208;8.806;2023-05-23T14:56:08;18.00;99.90
2050;DHT22;8478;49.208;8.806;2023-05-23T14:58:33;18.00;99.90
2050;DHT22;8478;49.208;8.806;2023-05-23T15:00:59;18.00;99.90
2050;DHT22;8478;49.208;8.806;2023-05-23T15:03:26;18.00;99.90
2050;DHT22;8478;49.208;8.806;2023-05-23T15:05:52;18.00;99.90
2050;DHT22;8478;49.208;8.806;2023-05-23T15:08:17;18.00;99.90
2050;DHT22;8478;49.208;8.806;2023-05-23T15:10:44;18.00;99.90
2050;DHT22;8478;49.208;8.806;2023-05-23T15:13:10;18.00;99.90
2050;DHT22;8478;49.208;8.806;2023-05-23T15:15:36;18.00;99.90
2050;DHT22;8478;49.208;8.806;2023-05-23T15:18:05;18.00;99.90
2050;DHT22;8478;49.208;8.806;2023-05-23T15:20:34;18.00;99.90
2050;DHT22;8478;49.208;8.806;2023-05-23T15:23:00;18.00;99.90
2050;DHT22;8478;49.208;8.806;2023-05-23T15:25:27;18.00;99.90
2050;DHT22;8478;49.208;8.806;2023-05-23T15:27:53;18.00;99.90
2050;DHT22;8478;49.208;8.806;2023-05-23T15:30:19;18.00;99.90
2050;DHT22;8478;49.208;8.806;2023-05-23T15:32:44;18.00;99.90
2050;DHT22;8478;49.208;8.806;2023-05-23T15:35:10;18.00;99.90
2050;DHT22;8478;49.208;8.806;2023-05-23T15:37:36;17.90;99.90
2050;DHT22;8478;49.208;8.806;2023-05-23T15:40:02;18.00;99.90
2050;DHT22;8478;49.208;8.806;2023-05-23T15:42:28;18.00;99.90
2050;DHT22;8478;49.208;8.806;2023-05-23T15:44:54;18.00;99.90
2050;DHT22;8478;49.208;8.806;2023-05-23T15:47:20;18.00;99.90
2050;DHT22;8478;49.208;8.806;2023-05-23T15:49:46;18.00;99.90
2050;DHT22;8478;49.208;8.806;2023-05-23T15:52:12;17.90;99.90
2050;DHT22;8478;49.208;8.806;2023-05-23T15:54:37;17.90;99.90
2050;DHT22;8478;49.208;8.806;2023-05-23T15:57:03;18.00;99.90
2050;DHT22;8478;49.208;8.806;2023-05-23T15:59:29;18.00;99.90
2050;DHT22;8478;49.208;8.806;2023-05-23T16:01:57;18.00;99.90
2050;DHT22;8478;49.208;8.806;2023-05-23T16:04:23;18.00;99.90
2050;DHT22;8478;49.208;8.806;2023-05-23T16:06:49;18.00;99.90
2050;DHT22;8478;49.208;8.806;2023-05-23T16:09:15;17.90;99.90
2050;DHT22;8478;49.208;8.806;2023-05-23T16:11:41;17.90;99.90
2050;DHT22;8478;49.208;8.806;2023-05-23T16:14:07;18.00;99.90
2050;DHT22;8478;49.208;8.806;2023-05-23T16:16:33;18.00;99.90
2050;DHT22;8478;49.208;8.806;2023-05-23T16:18:58;18.00;99.90
2050;DHT22;8478;49.208;8.806;2023-05-23T16:21:24;18.00;99.90
2050;DHT22;8478;49.208;8.806;2023-05-23T16:23:51;18.00;99.90
2050;DHT22;8478;49.208;8.806;2023-05-23T16:26:17;17.90;99.90
2050;DHT22;8478;49.208;8.806;2023-05-23T16:28:43;18.00;99.90
2050;DHT22;8478;49.208;8.806;2023-05-23T16:31:14;17.90;99.90
2050;DHT22;8478;49.208;8.806;2023-05-23T16:33:44;17.90;99.90
2050;DHT22;8478;49.208;8.806;2023-05-23T16:36:09;17.90;99.90
2050;DHT22;8478;49.208;8.806;2023-05-23T16:38:35;18.00;99.90
2050;DHT22;8478;49.208;8.806;2023-05-23T16:41:01;18.00;99.90
2050;DHT22;8478;49.208;8.806;2023-05-23T16:43:26;17.90;99.90
2050;DHT22;8478;49.208;8.806;2023-05-23T16:45:52;17.90;99.90
2050;DHT22;8478;49.208;8.806;2023-05-23T16:48:18;17.90;99.90
2050;DHT22;8478;49.208;8.806;2023-05-23T16:50:46;18.00;99.90
2050;DHT22;8478;49.208;8.806;2023-05-23T16:53:12;17.90;99.90
2050;DHT22;8478;49.208;8.806;2023-05-23T16:55:38;17.90;99.90
2050;DHT22;8478;49.208;8.806;2023-05-23T16:58:03;17.90;99.90
2050;DHT22;8478;49.208;8.806;2023-05-23T17:00:29;17.90;99.90
2050;DHT22;8478;49.208;8.806;2023-05-23T17:02:55;17.90;99.90
2050;DHT22;8478;49.208;8.806;2023-05-23T17:05:20;17.90;99.90
2050;DHT22;8478;49.208;8.806;2023-05-23T17:07:46;17.90;99.90
2050;DHT22;8478;49.208;8.806;2023-05-23T17:10:12;17.90;99.90
2050;DHT22;8478;49.208;8.806;2023-05-23T17:12:37;17.90;99.90
2050;DHT22;8478;49.208;8.806;2023-05-23T17:15:04;17.90;99.90
2050;DHT22;8478;49.208;8.806;2023-05-23T17:17:31;17.90;99.90
2050;DHT22;8478;49.208;8.806;2023-05-23T17:19:57;17.90;99.90
2050;DHT22;8478;49.208;8.806;2023-05-23T17:22:23;17.90;99.90
2050;DHT22;8478;49.208;8.806;2023-05-23T17:24:48;17.90;99.90
2050;DHT22;8478;49.208;8.806;2023-05-23T17:27:14;17.90;99.90
2050;DHT22;8478;49.208;8.806;2023-05-23T17:29:40;17.90;99.90
2050;DHT22;8478;49.208;8.806;2023-05-23T17:32:05;17.90;99.90
2050;DHT22;8478;49.208;8.806;2023-05-23T17:34:31;17.90;99.90
2050;DHT22;8478;49.208;8.806;2023-05-23T17:36:57;17.90;99.90
2050;DHT22;8478;49.208;8.806;2023-05-23T17:39:22;17.90;99.90
2050;DHT22;8478;49.208;8.806;2023-05-23T17:41:48;17.90;99.90
2050;DHT22;8478;49.208;8.806;2023-05-23T17:44:15;17.90;99.90
2050;DHT22;8478;49.208;8.806;2023-05-23T17:46:40;17.90;99.90
2050;DHT22;8478;49.208;8.806;2023-05-23T17:49:06;17.90;99.90
2050;DHT22;8478;49.208;8.806;2023-05-23T17:51:31;17.90;99.90
2050;DHT22;8478;49.208;8.806;2023-05-23T17:53:57;17.90;99.90
2050;DHT22;8478;49.208;8.806;2023-05-23T17:56:23;17.90;99.90
2050;DHT22;8478;49.208;8.806;2023-05-23T17:58:50;17.90;99.90
2050;DHT22;8478;49.208;8.806;2023-05-23T18:01:15;17.90;99.90
2050;DHT22;8478;49.208;8.806;2023-05-23T18:03:41;17.90;99.90
2050;DHT22;8478;49.208;8.806;2023-05-23T18:06:08;17.90;99.90
2050;DHT22;8478;49.208;8.806;2023-05-23T18:08:33;17.90;99.90
2050;DHT22;8478;49.208;8.806;2023-05-23T18:10:59;17.90;99.90
2050;DHT22;8478;49.208;8.806;2023-05-23T18:13:25;17.90;99.90
2050;DHT22;8478;49.208;8.806;2023-05-23T18:15:51;17.90;99.90
2050;DHT22;8478;49.208;8.806;2023-05-23T18:18:16;17.90;99.90
2050;DHT22;8478;49.208;8.806;2023-05-23T18:20:42;17.90;99.90
2050;DHT22;8478;49.208;8.806;2023-05-23T18:23:08;17.90;99.90
2050;DHT22;8478;49.208;8.806;2023-05-23T18:25:34;17.90;99.90
2050;DHT22;8478;49.208;8.806;2023-05-23T18:28:00;17.90;99.90
2050;DHT22;8478;49.208;8.806;2023-05-23T18:30:26;17.90;99.90
2050;DHT22;8478;49.208;8.806;2023-05-23T18:32:53;17.80;99.90
2050;DHT22;8478;49.208;8.806;2023-05-23T18:35:22;17.80;99.90
2050;DHT22;8478;49.208;8.806;2023-05-23T18:37:47;17.90;99.90
2050;DHT22;8478;49.208;8.806;2023-05-23T18:40:14;17.90;99.90
2050;DHT22;8478;49.208;8.806;2023-05-23T18:42:39;17.90;99.90
2050;DHT22;8478;49.208;8.806;2023-05-23T18:45:06;17.90;99.90
2050;DHT22;8478;49.208;8.806;2023-05-23T18:47:32;17.90;99.90
2050;DHT22;8478;49.208;8.806;2023-05-23T18:49:58;17.80;99.90
2050;DHT22;8478;49.208;8.806;2023-05-23T18:52:24;17.80;99.90
2050;DHT22;8478;49.208;8.806;2023-05-23T18:54:50;17.80;99.90
2050;DHT22;8478;49.208;8.806;2023-05-23T18:57:19;17.90;99.90
2050;DHT22;8478;49.208;8.806;2023-05-23T18:59:47;17.80;99.90
2050;DHT22;8478;49.208;8.806;2023-05-23T19:02:13;17.80;99.90
2050;DHT22;8478;49.208;8.806;2023-05-23T19:04:39;17.90;99.90
2050;DHT22;8478;49.208;8.806;2023-05-23T19:07:05;17.80;99.90
2050;DHT22;8478;49.208;8.806;2023-05-23T19:09:32;17.80;99.90
2050;DHT22;8478;49.208;8.806;2023-05-23T19:11:57;17.80;99.90
2050;DHT22;8478;49.208;8.806;2023-05-23T19:14:23;17.80;99.90
2050;DHT22;8478;49.208;8.806;2023-05-23T19:16:49;17.80;99.90
2050;DHT22;8478;49.208;8.806;2023-05-23T19:19:16;17.80;99.90
2050;DHT22;8478;49.208;8.806;2023-05-23T19:21:41;17.80;99.90
2050;DHT22;8478;49.208;8.806;2023-05-23T19:24:07;17.80;99.90
2050;DHT22;8478;49.208;8.806;2023-05-23T19:26:33;17.80;99.90
2050;DHT22;8478;49.208;8.806;2023-05-23T19:28:59;17.80;99.90
2050;DHT22;8478;49.208;8.806;2023-05-23T19:31:26;17.80;99.90
2050;DHT22;8478;49.208;8.806;2023-05-23T19:33:52;17.80;99.90
2050;DHT22;8478;49.208;8.806;2023-05-23T19:36:18;17.80;99.90
2050;DHT22;8478;49.208;8.806;2023-05-23T19:38:44;17.80;99.90
2050;DHT22;8478;49.208;8.806;2023-05-23T19:41:09;17.80;99.90
2050;DHT22;8478;49.208;8.806;2023-05-23T19:43:36;17.80;99.90
2050;DHT22;8478;49.208;8.806;2023-05-23T19:46:01;17.80;99.90
2050;DHT22;8478;49.208;8.806;2023-05-23T19:48:27;17.80;99.90
2050;DHT22;8478;49.208;8.806;2023-05-23T19:50:53;17.80;99.90
2050;DHT22;8478;49.208;8.806;2023-05-23T19:53:19;17.80;99.90
2050;DHT22;8478;49.208;8.806;2023-05-23T19:55:44;17.80;99.90
2050;DHT22;8478;49.208;8.806;2023-05-23T19:58:10;17.80;99.90
2050;DHT22;8478;49.208;8.806;2023-05-23T20:00:36;17.80;99.90
2050;DHT22;8478;49.208;8.806;2023-05-23T20:03:02;17.80;99.90
2050;DHT22;8478;49.208;8.806;2023-05-23T20:05:28;17.80;99.90
2050;DHT22;8478;49.208;8.806;2023-05-23T20:07:54;17.80;99.90
2050;DHT22;8478;49.208;8.806;2023-05-23T20:10:19;17.80;99.90
2050;DHT22;8478;49.208;8.806;2023-05-23T20:12:45;17.80;99.90
2050;DHT22;8478;49.208;8.806;2023-05-23T20:15:12;17.80;99.90
2050;DHT22;8478;49.208;8.806;2023-05-23T20:17:38;17.80;99.90
2050;DHT22;8478;49.208;8.806;2023-05-23T20:20:04;17.80;99.90
2050;DHT22;8478;49.208;8.806;2023-05-23T20:22:30;17.80;99.90
2050;DHT22;8478;49.208;8.806;2023-05-23T20:24:56;17.80;99.90
2050;DHT22;8478;49.208;8.806;2023-05-23T20:27:22;17.70;99.90
2050;DHT22;8478;49.208;8.806;2023-05-23T20:29:49;17.70;99.90
2050;DHT22;8478;49.208;8.806;2023-05-23T20:32:15;17.70;99.90
2050;DHT22;8478;49.208;8.806;2023-05-23T20:34:41;17.70;99.90
2050;DHT22;8478;49.208;8.806;2023-05-23T20:37:07;17.70;99.90
2050;DHT22;8478;49.208;8.806;2023-05-23T20:39:32;17.70;99.90
2050;DHT22;8478;49.208;8.806;2023-05-23T20:41:59;17.70;99.90
2050;DHT22;8478;49.208;8.806;2023-05-23T20:44:25;17.70;99.90
2050;DHT22;8478;49.208;8.806;2023-05-23T20:46:51;17.70;99.90
2050;DHT22;8478;49.208;8.806;2023-05-23T20:49:17;17.70;99.90
2050;DHT22;8478;49.208;8.806;2023-05-23T20:51:43;17.70;99.90
2050;DHT22;8478;49.208;8.806;2023-05-23T20:54:08;17.70;99.90
2050;DHT22;8478;49.208;8.806;2023-05-23T20:56:34;17.70;99.90
2050;DHT22;8478;49.208;8.806;2023-05-23T20:59:00;17.70;99.90
2050;DHT22;8478;49.208;8.806;2023-05-23T21:01:27;17.70;99.90
2050;DHT22;8478;49.208;8.806;2023-05-23T21:03:53;17.70;99.90
2050;DHT22;8478;49.208;8.806;2023-05-23T21:06:19;17.70;99.90
2050;DHT22;8478;49.208;8.806;2023-05-23T21:08:45;17.70;99.90
2050;DHT22;8478;49.208;8.806;2023-05-23T21:11:10;17.70;99.90
2050;DHT22;8478;49.208;8.806;2023-05-23T21:13:37;17.70;99.90
2050;DHT22;8478;49.208;8.806;2023-05-23T21:16:03;17.70;99.90
2050;DHT22;8478;49.208;8.806;2023-05-23T21:18:30;17.70;99.90
2050;DHT22;8478;49.208;8.806;2023-05-23T21:20:56;17.60;99.90
2050;DHT22;8478;49.208;8.806;2023-05-23T21:23:21;17.60;99.90
2050;DHT22;8478;49.208;8.806;2023-05-23T21:25:47;17.60;99.90
2050;DHT22;8478;49.208;8.806;2023-05-23T21:28:13;17.60;99.90
2050;DHT22;8478;49.208;8.806;2023-05-23T21:30:38;17.60;99.90
2050;DHT22;8478;49.208;8.806;2023-05-23T21:33:04;17.60;99.90
2050;DHT22;8478;49.208;8.806;2023-05-23T21:35:30;17.60;99.90
2050;DHT22;8478;49.208;8.806;2023-05-23T21:37:55;17.60;99.90
2050;DHT22;8478;49.208;8.806;2023-05-23T21:40:22;17.60;99.90
2050;DHT22;8478;49.208;8.806;2023-05-23T21:42:49;17.60;99.90
2050;DHT22;8478;49.208;8.806;2023-05-23T21:45:15;17.60;99.90
2050;DHT22;8478;49.208;8.806;2023-05-23T21:47:40;17.60;99.90
2050;DHT22;8478;49.208;8.806;2023-05-23T21:50:07;17.60;99.90
2050;DHT22;8478;49.208;8.806;2023-05-23T21:52:33;17.60;99.90
2050;DHT22;8478;49.208;8.806;2023-05-23T21:54:59;17.60;99.90
2050;DHT22;8478;49.208;8.806;2023-05-23T21:57:24;17.60;99.90
2050;DHT22;8478;49.208;8.806;2023-05-23T21:59:50;17.50;99.90
2050;DHT22;8478;49.208;8.806;2023-05-23T22:02:16;17.60;99.90
2050;DHT22;8478;49.208;8.806;2023-05-23T22:04:42;17.60;99.90
2050;DHT22;8478;49.208;8.806;2023-05-23T22:07:09;17.60;99.90
2050;DHT22;8478;49.208;8.806;2023-05-23T22:09:34;17.60;99.90
2050;DHT22;8478;49.208;8.806;2023-05-23T22:12:00;17.60;99.90
2050;DHT22;8478;49.208;8.806;2023-05-23T22:14:26;17.60;99.90
2050;DHT22;8478;49.208;8.806;2023-05-23T22:16:51;17.50;99.90
2050;DHT22;8478;49.208;8.806;2023-05-23T22:19:17;17.50;99.90
2050;DHT22;8478;49.208;8.806;2023-05-23T22:21:44;17.60;99.90
2050;DHT22;8478;49.208;8.806;2023-05-23T22:24:10;17.50;99.90
2050;DHT22;8478;49.208;8.806;2023-05-23T22:26:36;17.50;99.90
2050;DHT22;8478;49.208;8.806;2023-05-23T22:29:03;17.50;99.90
2050;DHT22;8478;49.208;8.806;2023-05-23T22:31:29;17.50;99.90
2050;DHT22;8478;49.208;8.806;2023-05-23T22:33:55;17.50;99.90
2050;DHT22;8478;49.208;8.806;2023-05-23T22:36:21;17.50;99.90
2050;DHT22;8478;49.208;8.806;2023-05-23T22:38:47;17.50;99.90
2050;DHT22;8478;49.208;8.806;2023-05-23T22:41:13;17.50;99.90
2050;DHT22;8478;49.208;8.806;2023-05-23T22:43:39;17.50;99.90
2050;DHT22;8478;49.208;8.806;2023-05-23T22:46:05;17.50;99.90
2050;DHT22;8478;49.208;8.806;2023-05-23T22:48:31;17.50;99.90
2050;DHT22;8478;49.208;8.806;2023-05-23T22:51:02;17.50;99.90
2050;DHT22;8478;49.208;8.806;2023-05-23T22:53:28;17.50;99.90
2050;DHT22;8478;49.208;8.806;2023-05-23T22:55:54;17.50;99.90
2050;DHT22;8478;49.208;8.806;2023-05-23T22:58:20;17.50;99.90
2050;DHT22;8478;49.208;8.806;2023-05-23T23:00:46;17.50;99.90
2050;DHT22;8478;49.208;8.806;2023-05-23T23:03:11;17.50;99.90
2050;DHT22;8478;49.208;8.806;2023-05-23T23:05:39;17.50;99.90
2050;DHT22;8478;49.208;8.806;2023-05-23T23:08:05;17.40;99.90
2050;DHT22;8478;49.208;8.806;2023-05-23T23:10:30;17.40;99.90
2050;DHT22;8478;49.208;8.806;2023-05-23T23:12:56;17.40;99.90
2050;DHT22;8478;49.208;8.806;2023-05-23T23:15:22;17.40;99.90
2050;DHT22;8478;49.208;8.806;2023-05-23T23:17:48;17.40;99.90
2050;DHT22;8478;49.208;8.806;2023-05-23T23:20:13;17.40;99.90
2050;DHT22;8478;49.208;8.806;2023-05-23T23:22:41;17.40;99.90
2050;DHT22;8478;49.208;8.806;2023-05-23T23:25:08;17.40;99.90
2050;DHT22;8478;49.208;8.806;2023-05-23T23:27:38;17.40;99.90
2050;DHT22;8478;49.208;8.806;2023-05-23T23:30:07;17.40;99.90
2050;DHT22;8478;49.208;8.806;2023-05-23T23:32:33;17.40;99.90
2050;DHT22;8478;49.208;8.806;2023-05-23T23:34:59;17.40;99.90
2050;DHT22;8478;49.208;8.806;2023-05-23T23:37:24;17.40;99.90
2050;DHT22;8478;49.208;8.806;2023-05-23T23:39:50;17.40;99.90
2050;DHT22;8478;49.208;8.806;2023-05-23T23:42:16;17.40;99.90
2050;DHT22;8478;49.208;8.806;2023-05-23T23:44:41;17.40;99.90
2050;DHT22;8478;49.208;8.806;2023-05-23T23:47:07;17.40;99.90
2050;DHT22;8478;49.208;8.806;2023-05-23T23:49:33;17.40;99.90
2050;DHT22;8478;49.208;8.806;2023-05-23T23:51:59;17.40;99.90
2050;DHT22;8478;49.208;8.806;2023-05-23T23:54:24;17.40;99.90
2050;DHT22;8478;49.208;8.806;2023-05-23T23:56:50;17.40;99.90
2050;DHT22;8478;49.208;8.806;2023-05-23T23:59:16;17.40;99.90
